Time;durP1;ratioP1;P1;durP2;ratioP2;P2;SDS_P1;SDS_P2;PMS_P1;PMS_P2;Temp;Humidity;BMP_temperature;BMP_pressure;BME280_temperature;BME280_humidity;BME280_pressure;Samples;Min_cycle;Max_cycle;Signal;HPM_P1;HPM_P2
2024/04/24 00:01:06;;;;;;;4.20;3.10;;;;;;;10.10;100.00;100273.26;87081;270;137176;-67
2024/04/24 00:03:06;;;;;;;2.70;2.60;;;;;;;10.10;100.00;100275.95;87142;272;24654;-68
2024/04/24 00:05:07;;;;;;;4.80;3.00;;;;;;;10.10;100.00;100272.45;87088;270;138155;-66
2024/04/24 00:07:08;;;;;;;2.70;2.50;;;;;;;10.11;100.00;100266.72;87282;274;22572;-68
2024/04/24 00:09:09;;;;;;;2.70;2.50;;;;;;;10.12;100.00;100262.39;87054;272;137334;-69
2024/04/24 00:11:09;;;;;;;2.90;2.70;;;;;;;10.12;100.00;100255.17;87210;274;24180;-67
2024/04/24 00:13:10;;;;;;;2.80;2.60;;;;;;;10.13;100.00;100252.93;87060;266;137083;-66
2024/04/24 00:15:11;;;;;;;3.00;2.80;;;;;;;10.14;100.00;100251.50;87247;274;22638;-67
2024/04/24 00:17:12;;;;;;;2.90;2.70;;;;;;;10.13;100.00;100245.32;86975;272;136539;-66
2024/04/24 00:19:13;;;;;;;3.10;2.60;;;;;;;10.14;100.00;100244.18;87184;268;22965;-67
2024/04/24 00:21:14;;;;;;;2.70;2.50;;;;;;;10.14;100.00;100245.96;87226;286;136911;-67
2024/04/24 00:23:15;;;;;;;4.70;2.30;;;;;;;10.14;100.00;100244.04;87189;268;22548;-68
2024/04/24 00:25:15;;;;;;;3.70;2.30;;;;;;;10.14;100.00;100239.55;87169;274;136733;-66
2024/04/24 00:27:16;;;;;;;2.90;2.70;;;;;;;10.14;100.00;100234.23;87148;273;24458;-65
2024/04/24 00:29:17;;;;;;;2.70;2.60;;;;;;;10.14;100.00;100235.61;87185;277;137127;-67
2024/04/24 00:31:17;;;;;;;2.00;1.90;;;;;;;10.13;100.00;100230.23;87278;270;25121;-67
2024/04/24 00:33:18;;;;;;;3.10;2.80;;;;;;;10.13;100.00;100229.34;87086;266;137174;-66
2024/04/24 00:35:19;;;;;;;2.40;2.30;;;;;;;10.13;100.00;100227.05;87243;274;23624;-66
2024/04/24 00:37:19;;;;;;;4.70;2.60;;;;;;;10.14;100.00;100224.30;87150;270;138584;-66
2024/04/24 00:39:20;;;;;;;2.20;2.10;;;;;;;10.14;100.00;100217.37;87308;270;22551;-67
2024/04/24 00:41:21;;;;;;;4.30;2.80;;;;;;;10.14;100.00;100209.17;87099;274;137408;-66
2024/04/24 00:43:22;;;;;;;3.60;2.60;;;;;;;10.15;100.00;100206.97;87256;278;25218;-67
2024/04/24 00:45:23;;;;;;;2.70;2.50;;;;;;;10.14;100.00;100204.23;87082;270;138608;-67
2024/04/24 00:47:26;;;;;;;2.80;2.60;;;;;;;10.14;100.00;100196.44;87248;270;22632;-67
2024/04/24 00:49:27;;;;;;;4.00;2.60;;;;;;;10.14;100.00;100197.62;87188;279;138312;-66
2024/04/24 00:51:29;;;;;;;2.50;2.40;;;;;;;10.12;100.00;100193.14;87140;272;22566;-66
2024/04/24 00:53:30;;;;;;;2.60;2.40;;;;;;;10.12;100.00;100184.78;87093;280;137244;-67
2024/04/24 00:55:32;;;;;;;2.10;2.00;;;;;;;10.12;100.00;100177.66;87093;268;22643;-68
2024/04/24 00:57:33;;;;;;;2.30;2.10;;;;;;;10.13;100.00;100172.73;87245;270;137978;-68
2024/04/24 00:59:35;;;;;;;2.30;2.20;;;;;;;10.13;100.00;100180.30;87265;277;22558;-69
2024/04/24 01:01:35;;;;;;;3.20;2.90;;;;;;;10.14;100.00;100170.42;87204;268;136986;-67
2024/04/24 01:03:37;;;;;;;2.20;2.10;;;;;;;10.16;100.00;100166.38;87167;271;24039;-67
2024/04/24 01:05:37;;;;;;;1.80;1.70;;;;;;;10.16;100.00;100160.32;87025;268;137021;-66
2024/04/24 01:07:38;;;;;;;2.60;2.50;;;;;;;10.16;100.00;100157.98;87137;279;22709;-67
2024/04/24 01:09:39;;;;;;;2.20;1.80;;;;;;;10.17;100.00;100154.18;87098;275;138055;-67
2024/04/24 01:11:40;;;;;;;2.40;2.20;;;;;;;10.17;100.00;100150.74;87119;271;22687;-67
2024/04/24 01:13:41;;;;;;;2.30;2.20;;;;;;;10.18;100.00;100146.02;87116;267;136871;-66
2024/04/24 01:15:43;;;;;;;2.00;1.90;;;;;;;10.20;100.00;100138.55;87241;271;23671;-67
2024/04/24 01:17:47;;;;;;;1.70;1.60;;;;;;;10.21;100.00;100135.60;87118;267;136755;-67
2024/04/24 01:19:51;;;;;;;2.30;2.10;;;;;;;10.21;100.00;100135.86;87275;278;22574;-66
2024/04/24 01:22:19;;;;;;;2.10;2.00;;;;;;;10.22;100.00;100133.25;87211;270;137392;-66
2024/04/24 01:24:29;;;;;;;1.80;1.70;;;;;;;10.24;100.00;100126.92;87143;270;137330;-66
2024/04/24 01:26:45;;;;;;;3.80;2.10;;;;;;;10.26;100.00;100124.73;87282;274;25120;-65
2024/04/24 01:28:46;;;;;;;2.20;2.10;;;;;;;10.28;100.00;100121.63;87130;274;136791;-66
2024/04/24 01:30:46;;;;;;;3.10;2.00;;;;;;;10.30;100.00;100116.69;87141;271;22557;-65
2024/04/24 01:32:47;;;;;;;2.50;2.20;;;;;;;10.30;100.00;100117.05;87191;270;137018;-65
2024/04/24 01:34:48;;;;;;;1.90;1.90;;;;;;;10.30;100.00;100108.95;87146;267;24177;-66
2024/04/24 01:36:48;;;;;;;2.10;1.90;;;;;;;10.31;100.00;100109.38;87169;270;138379;-65
2024/04/24 01:38:49;;;;;;;1.40;1.40;;;;;;;10.32;100.00;100106.77;87174;265;26236;-67
2024/04/24 01:40:50;;;;;;;1.90;1.80;;;;;;;10.33;100.00;100105.61;87129;276;137149;-66
2024/04/24 01:42:50;;;;;;;1.90;1.70;;;;;;;10.34;100.00;100099.50;87339;271;22662;-65
2024/04/24 01:44:51;;;;;;;2.00;1.80;;;;;;;10.34;100.00;100097.70;87231;271;137685;-66
2024/04/24 01:46:52;;;;;;;1.80;1.20;;;;;;;10.31;100.00;100094.17;87350;270;25227;-64
2024/04/24 01:48:53;;;;;;;1.80;1.70;;;;;;;10.27;100.00;100093.77;87166;275;137423;-65
2024/04/24 01:50:54;;;;;;;3.00;1.90;;;;;;;10.21;100.00;100083.13;87247;267;22554;-67
2024/04/24 01:52:55;;;;;;;1.70;1.60;;;;;;;10.17;100.00;100084.06;87129;269;137059;-69
2024/04/24 01:54:55;;;;;;;2.20;2.10;;;;;;;10.13;100.00;100081.00;87200;266;22571;-65
2024/04/24 01:56:56;;;;;;;2.50;1.40;;;;;;;10.08;100.00;100080.80;87159;276;137065;-66
2024/04/24 01:58:57;;;;;;;1.80;1.70;;;;;;;10.04;100.00;100069.26;87181;272;24136;-66
2024/04/24 02:00:57;;;;;;;1.80;1.70;;;;;;;10.01;100.00;100059.88;87093;278;138244;-67
2024/04/24 02:02:58;;;;;;;2.00;1.50;;;;;;;10.00;100.00;100052.28;87366;270;22612;-67
2024/04/24 02:04:59;;;;;;;3.10;2.30;;;;;;;9.99;100.00;100052.58;87114;267;136818;-66
2024/04/24 02:06:59;;;;;;;1.60;1.50;;;;;;;9.98;100.00;100049.04;87176;280;22572;-66
2024/04/24 02:09:00;;;;;;;2.10;2.00;;;;;;;9.98;100.00;100041.98;87154;271;137331;-68
2024/04/24 02:11:01;;;;;;;2.00;1.50;;;;;;;9.98;100.00;100034.24;87271;266;22576;-67
2024/04/24 02:13:02;;;;;;;1.80;1.50;;;;;;;9.97;100.00;100035.71;87222;278;138256;-68
2024/04/24 02:15:03;;;;;;;1.50;1.40;;;;;;;9.96;100.00;100028.17;87223;272;22573;-68
2024/04/24 02:17:04;;;;;;;1.40;1.30;;;;;;;9.96;100.00;100031.11;87143;266;136543;-68
2024/04/24 02:19:04;;;;;;;1.40;1.40;;;;;;;9.95;100.00;100026.24;86522;278;922973;-70
2024/04/24 02:21:07;;;;;;;1.60;1.50;;;;;;;9.94;100.00;100022.42;87153;279;137254;-65
2024/04/24 02:23:07;;;;;;;1.40;1.30;;;;;;;9.94;100.00;100017.60;87066;269;22826;-69
2024/04/24 02:27:27;;;;;;;1.60;1.50;;;;;;;9.94;100.00;100011.16;87294;278;22607;-77
2024/04/24 02:29:28;;;;;;;1.90;1.50;;;;;;;9.92;100.00;100016.23;87225;274;138672;-66
2024/04/24 02:31:29;;;;;;;1.90;1.80;;;;;;;9.91;100.00;100008.27;87262;270;25206;-67
2024/04/24 02:33:29;;;;;;;1.80;1.70;;;;;;;9.90;100.00;100007.52;87097;273;137148;-71
2024/04/24 02:35:30;;;;;;;2.40;2.30;;;;;;;9.88;100.00;100010.54;87298;275;24008;-75
2024/04/24 02:37:31;;;;;;;2.00;1.90;;;;;;;9.86;100.00;100001.34;87141;276;136957;-68
2024/04/24 02:39:32;;;;;;;2.20;2.10;;;;;;;9.84;100.00;100007.82;87255;272;22564;-68
2024/04/24 02:41:33;;;;;;;2.30;2.10;;;;;;;9.83;100.00;100003.20;87246;270;137731;-71
2024/04/24 02:43:33;;;;;;;1.90;1.80;;;;;;;9.82;100.00;100003.89;87158;271;24184;-68
2024/04/24 02:45:34;;;;;;;2.70;1.60;;;;;;;9.81;100.00;100011.45;87252;266;136601;-67
2024/04/24 02:47:35;;;;;;;2.20;2.00;;;;;;;9.80;100.00;100011.60;87314;274;25330;-66
2024/04/24 02:49:36;;;;;;;2.20;1.70;;;;;;;9.78;100.00;100009.87;87188;274;136609;-67
2024/04/24 02:51:36;;;;;;;1.30;1.30;;;;;;;9.77;100.00;100009.41;87205;276;24013;-68
2024/04/24 02:53:37;;;;;;;2.20;2.00;;;;;;;9.78;100.00;100010.66;87082;272;136867;-67
2024/04/24 02:55:38;;;;;;;2.80;1.90;;;;;;;9.77;100.00;100009.98;87244;271;22537;-68
2024/04/24 02:57:39;;;;;;;2.00;1.90;;;;;;;9.75;100.00;100002.92;87145;278;136365;-66
2024/04/24 02:59:40;;;;;;;3.80;2.00;;;;;;;9.74;100.00;100003.73;87297;271;25124;-69
2024/04/24 03:01:40;;;;;;;4.20;2.00;;;;;;;9.74;100.00;100006.30;87089;268;136643;-69
2024/04/24 03:03:41;;;;;;;3.00;2.00;;;;;;;9.73;100.00;100002.79;87354;270;22552;-70
2024/04/24 03:05:42;;;;;;;2.20;2.10;;;;;;;9.73;100.00;100000.95;87324;271;137867;-67
2024/04/24 03:07:43;;;;;;;2.70;2.50;;;;;;;9.71;100.00;99994.62;87166;272;22790;-69
2024/04/24 03:09:43;;;;;;;2.80;2.20;;;;;;;9.70;100.00;99989.40;87210;270;137532;-68
2024/04/24 03:11:44;;;;;;;1.90;1.80;;;;;;;9.70;100.00;99987.64;87235;270;22648;-66
2024/04/24 03:13:45;;;;;;;4.00;2.80;;;;;;;9.69;100.00;99985.26;87161;267;136680;-68
2024/04/24 03:15:45;;;;;;;1.90;1.80;;;;;;;9.68;100.00;99979.02;87275;275;23743;-67
2024/04/24 03:17:46;;;;;;;3.50;2.50;;;;;;;9.67;100.00;99978.25;87150;274;136290;-69
2024/04/24 03:19:47;;;;;;;1.80;1.60;;;;;;;9.66;100.00;99979.23;87180;263;24071;-67
2024/04/24 03:21:48;;;;;;;2.00;1.80;;;;;;;9.66;100.00;99970.58;87157;270;136330;-66
2024/04/24 03:23:50;;;;;;;2.40;1.60;;;;;;;9.66;100.00;99974.34;87313;269;22565;-69
2024/04/24 03:25:51;;;;;;;2.50;2.30;;;;;;;9.64;100.00;99970.80;87276;278;137627;-67
2024/04/24 03:27:51;;;;;;;2.40;2.20;;;;;;;9.64;100.00;99964.25;87156;271;22594;-69
2024/04/24 03:29:52;;;;;;;1.90;1.80;;;;;;;9.61;100.00;99964.20;87698;280;136801;-69
2024/04/24 03:31:53;;;;;;;2.40;2.20;;;;;;;9.61;100.00;99959.16;87597;270;22561;-67
2024/04/24 03:33:53;;;;;;;2.10;2.00;;;;;;;9.60;100.00;99946.70;87486;270;136125;-69
2024/04/24 03:35:54;;;;;;;3.10;1.80;;;;;;;9.60;100.00;99950.42;87652;271;22577;-70
2024/04/24 03:37:55;;;;;;;2.90;2.00;;;;;;;9.59;100.00;99940.92;87028;272;136261;-69
2024/04/24 03:39:56;;;;;;;6.30;2.20;;;;;;;9.59;100.00;99945.30;87198;277;22554;-70
2024/04/24 03:41:56;;;;;;;2.20;2.00;;;;;;;9.59;100.00;99944.30;87705;266;136459;-66
2024/04/24 03:43:58;;;;;;;2.00;1.90;;;;;;;9.59;100.00;99932.96;87122;279;22673;-66
2024/04/24 03:45:59;;;;;;;2.30;2.10;;;;;;;9.58;100.00;99933.98;87180;266;136197;-67
2024/04/24 03:48:00;;;;;;;1.60;1.50;;;;;;;9.57;100.00;99924.61;87226;263;25231;-67
2024/04/24 03:50:00;;;;;;;2.60;2.40;;;;;;;9.55;100.00;99929.30;87127;271;136652;-67
2024/04/24 03:52:01;;;;;;;2.10;1.70;;;;;;;9.57;100.00;99923.71;87185;270;22556;-67
2024/04/24 03:54:02;;;;;;;1.60;1.60;;;;;;;9.57;100.00;99918.84;87487;273;136819;-73
2024/04/24 03:56:03;;;;;;;2.30;2.20;;;;;;;9.57;100.00;99925.38;87188;274;138582;-68
2024/04/24 03:58:04;;;;;;;1.80;1.40;;;;;;;9.58;100.00;99924.46;87339;269;22721;-69
2024/04/24 04:00:05;;;;;;;2.00;1.80;;;;;;;9.60;100.00;99920.55;87509;272;137593;-75
2024/04/24 04:02:12;;;;;;;1.60;1.40;;;;;;;9.63;100.00;99927.11;87510;272;22724;-73
2024/04/24 04:04:13;;;;;;;2.70;2.00;;;;;;;9.66;100.00;99910.39;87338;279;136997;-76
2024/04/24 04:06:13;;;;;;;1.50;1.50;;;;;;;9.70;100.00;99909.16;87580;270;23630;-72
2024/04/24 04:08:16;;;;;;;1.70;1.50;;;;;;;9.73;100.00;99904.71;87652;272;136487;-71
2024/04/24 04:10:17;;;;;;;1.30;1.00;;;;;;;9.75;100.00;99896.42;87534;275;23279;-76
2024/04/24 04:12:18;;;;;;;1.40;1.40;;;;;;;9.79;100.00;99892.27;87567;270;136618;-73
2024/04/24 04:14:18;;;;;;;1.90;1.40;;;;;;;9.81;100.00;99887.73;87188;272;22568;-74
2024/04/24 04:16:19;;;;;;;1.80;1.80;;;;;;;9.84;100.00;99882.95;87097;278;137043;-67
2024/04/24 04:18:20;;;;;;;2.20;1.80;;;;;;;9.86;100.00;99888.11;87253;270;24421;-74
2024/04/24 04:20:20;;;;;;;1.80;1.70;;;;;;;9.89;100.00;99888.33;87050;279;138265;-67
2024/04/24 04:22:21;;;;;;;3.20;1.60;;;;;;;9.93;100.00;99891.02;87190;269;22559;-75
2024/04/24 04:24:22;;;;;;;1.80;1.60;;;;;;;9.97;100.00;99874.79;87218;265;136753;-73
2024/04/24 04:26:24;;;;;;;1.50;1.40;;;;;;;9.99;100.00;99878.57;87465;275;24114;-75
2024/04/24 04:28:24;;;;;;;1.70;1.60;;;;;;;10.01;100.00;99875.46;87630;275;136983;-69
2024/04/24 04:30:25;;;;;;;1.70;1.70;;;;;;;10.04;100.00;99879.52;87156;270;24221;-73
2024/04/24 04:32:26;;;;;;;1.60;1.50;;;;;;;10.05;100.00;99861.11;87252;272;136838;-75
2024/04/24 04:34:27;;;;;;;1.90;1.80;;;;;;;10.07;100.00;99865.88;87404;271;22600;-71
2024/04/24 04:36:27;;;;;;;3.60;1.70;;;;;;;10.06;100.00;99850.09;87506;270;136948;-78
2024/04/24 04:38:28;;;;;;;2.10;1.60;;;;;;;10.06;100.00;99857.34;87526;266;22554;-72
2024/04/24 04:40:29;;;;;;;2.20;2.00;;;;;;;10.07;100.00;99848.41;87274;274;136771;-70
2024/04/24 04:42:30;;;;;;;2.70;2.20;;;;;;;10.07;100.00;99846.45;87108;279;24230;-70
2024/04/24 04:44:30;;;;;;;1.80;1.70;;;;;;;10.08;100.00;99852.20;87097;271;136166;-76
2024/04/24 04:46:31;;;;;;;3.50;2.60;;;;;;;10.06;100.00;99855.42;87503;273;24008;-71
2024/04/24 04:48:32;;;;;;;2.70;2.10;;;;;;;10.04;100.00;99847.73;87054;273;136979;-67
2024/04/24 04:50:33;;;;;;;2.60;2.50;;;;;;;9.99;100.00;99844.15;87250;270;22558;-70
2024/04/24 04:52:33;;;;;;;2.30;2.10;;;;;;;9.95;100.00;99841.09;87062;269;136449;-72
2024/04/24 04:54:34;;;;;;;2.70;2.30;;;;;;;9.93;100.00;99850.84;87320;276;22555;-69
2024/04/24 04:56:35;;;;;;;3.00;2.70;;;;;;;9.92;100.00;99837.85;87141;273;136797;-75
2024/04/24 04:58:36;;;;;;;2.80;2.60;;;;;;;9.88;100.00;99833.20;87675;266;22572;-73
2024/04/24 05:00:37;;;;;;;2.60;2.40;;;;;;;9.88;100.00;99825.42;87325;278;136755;-75
2024/04/24 05:02:37;;;;;;;2.10;2.00;;;;;;;9.88;100.00;99828.08;87548;274;22693;-71
2024/04/24 05:04:38;;;;;;;3.30;3.10;;;;;;;9.88;100.00;99810.35;87939;272;136837;-70
2024/04/24 05:06:39;;;;;;;3.20;3.00;;;;;;;9.87;100.00;99804.77;88197;269;24077;-71
2024/04/24 05:08:39;;;;;;;3.60;3.30;;;;;;;9.88;100.00;99803.59;87930;265;136758;-76
2024/04/24 05:10:40;;;;;;;3.10;2.70;;;;;;;9.89;100.00;99803.85;88636;266;22551;-77
2024/04/24 05:12:41;;;;;;;6.50;3.10;;;;;;;9.90;100.00;99806.91;88801;266;137730;-74
2024/04/24 05:14:42;;;;;;;2.50;2.40;;;;;;;9.88;100.00;99804.16;89189;274;24094;-70
2024/04/24 05:16:42;;;;;;;3.00;2.70;;;;;;;9.90;100.00;99798.80;87400;271;136724;-74
2024/04/24 05:18:43;;;;;;;2.70;2.50;;;;;;;9.89;100.00;99798.32;87766;269;22555;-68
2024/04/24 05:20:44;;;;;;;3.30;3.10;;;;;;;9.91;100.00;99797.91;87353;266;137568;-71
2024/04/24 05:22:50;;;;;;;5.20;2.90;;;;;;;9.90;100.00;99794.38;87522;269;22562;-72
2024/04/24 05:24:51;;;;;;;4.00;3.60;;;;;;;9.90;100.00;99794.59;87804;273;136901;-74
2024/04/24 05:29:11;;;;;;;4.40;3.00;;;;;;;9.90;100.00;99777.46;87566;270;137469;-72
2024/04/24 05:31:11;;;;;;;2.80;2.60;;;;;;;9.91;100.00;99770.06;87609;270;22567;-74
2024/04/24 05:33:12;;;;;;;2.90;2.70;;;;;;;9.93;100.00;99772.56;87132;267;136064;-74
2024/04/24 05:35:13;;;;;;;3.00;2.70;;;;;;;9.93;100.00;99766.88;87621;271;24013;-79
2024/04/24 05:37:15;;;;;;;6.00;3.50;;;;;;;9.92;100.00;99763.52;87624;273;136987;-75
2024/04/24 05:39:15;;;;;;;4.80;4.20;;;;;;;9.93;100.00;99757.01;87555;270;24109;-75
2024/04/24 05:41:16;;;;;;;3.80;3.10;;;;;;;9.98;100.00;99766.12;87480;266;137361;-76
2024/04/24 05:43:17;;;;;;;2.80;2.60;;;;;;;10.04;100.00;99772.78;87691;274;25099;-74
2024/04/24 05:45:17;;;;;;;4.30;3.90;;;;;;;10.12;100.00;99765.96;87527;265;137836;-73
2024/04/24 05:47:19;;;;;;;4.10;3.10;;;;;;;10.20;100.00;99755.27;87664;277;23524;-86
2024/04/24 05:49:19;;;;;;;4.90;3.00;;;;;;;10.29;100.00;99764.44;87499;268;136779;-84
2024/04/24 05:51:20;;;;;;;3.00;2.80;;;;;;;10.46;100.00;99747.49;87292;274;22509;-83
2024/04/24 05:53:21;;;;;;;3.30;3.20;;;;;;;10.58;100.00;99744.02;87547;270;137749;-83
2024/04/24 05:55:25;;;;;;;3.50;3.20;;;;;;;10.70;100.00;99733.50;87770;277;25283;-83
2024/04/24 05:57:26;;;;;;;3.60;3.10;;;;;;;10.79;100.00;99723.79;87602;269;136752;-82
2024/04/24 05:59:26;;;;;;;3.50;3.00;;;;;;;10.89;100.00;99736.18;87805;266;26868;-81
2024/04/24 06:01:27;;;;;;;3.80;3.50;;;;;;;11.01;100.00;99727.45;87562;270;137501;-85
2024/04/24 06:03:28;;;;;;;3.90;3.20;;;;;;;11.11;100.00;99715.20;87735;271;22555;-80
2024/04/24 06:05:29;;;;;;;3.50;3.20;;;;;;;11.17;100.00;99711.38;87446;271;137137;-84
2024/04/24 06:07:30;;;;;;;3.80;3.60;;;;;;;11.26;100.00;99702.59;87752;264;24006;-82
2024/04/24 06:09:30;;;;;;;3.30;3.20;;;;;;;11.33;100.00;99704.00;87322;269;136660;-83
2024/04/24 06:11:31;;;;;;;3.60;2.90;;;;;;;11.35;100.00;99701.95;87529;268;22550;-81
2024/04/24 06:13:32;;;;;;;3.10;2.90;;;;;;;11.33;100.00;99692.52;87652;270;136712;-88
2024/04/24 06:15:33;;;;;;;2.40;2.30;;;;;;;11.30;100.00;99711.27;87695;274;22521;-82
2024/04/24 06:17:34;;;;;;;3.10;2.90;;;;;;;11.23;100.00;99692.98;87570;265;137498;-87
2024/04/24 06:19:34;;;;;;;3.20;3.00;;;;;;;11.16;100.00;99700.91;87924;270;23988;-86
2024/04/24 06:22:19;;;;;;;2.70;2.50;;;;;;;10.96;100.00;99675.88;85706;300;603691;-84
2024/04/24 06:24:20;;;;;;;3.10;2.80;;;;;;;10.87;100.00;99676.66;87220;284;136300;-83
2024/04/24 06:26:21;;;;;;;3.60;3.40;;;;;;;10.82;100.00;99677.23;87127;283;22571;-84
2024/04/24 06:28:22;;;;;;;3.70;2.90;;;;;;;10.78;100.00;99669.89;87060;282;135997;-83
2024/04/24 06:30:22;;;;;;;3.00;2.80;;;;;;;10.71;100.00;99675.61;86978;286;25210;-84
2024/04/24 06:32:23;;;;;;;3.60;3.40;;;;;;;10.67;100.00;99671.05;86945;279;135984;-80
2024/04/24 06:34:24;;;;;;;3.30;3.00;;;;;;;10.62;100.00;99672.20;86661;282;22529;-81
2024/04/24 06:36:24;;;;;;;3.40;3.20;;;;;;;10.57;100.00;99656.14;86186;284;742791;-77
2024/04/24 06:38:25;;;;;;;4.30;3.80;;;;;;;10.53;100.00;99661.01;86758;276;22610;-79
2024/04/24 06:40:26;;;;;;;3.80;3.50;;;;;;;10.50;100.00;99647.32;87462;284;136120;-82
2024/04/24 06:42:28;;;;;;;5.70;3.50;;;;;;;10.48;100.00;99645.09;86615;272;25278;-79
2024/04/24 06:44:29;;;;;;;4.10;3.90;;;;;;;10.47;100.00;99660.92;87146;282;137389;-81
2024/04/24 06:46:30;;;;;;;4.20;3.80;;;;;;;10.46;100.00;99637.80;87550;275;25066;-83
2024/04/24 06:48:31;;;;;;;3.30;3.10;;;;;;;10.46;100.00;99620.02;86736;275;136692;-79
2024/04/24 06:50:32;;;;;;;5.20;4.00;;;;;;;10.47;100.00;99630.71;86778;284;22600;-80
2024/04/24 06:52:33;;;;;;;4.80;3.90;;;;;;;10.47;100.00;99626.45;86794;284;136450;-80
2024/04/24 06:54:33;;;;;;;4.30;3.90;;;;;;;10.47;100.00;99617.59;86875;273;23976;-80
2024/04/24 06:56:36;;;;;;;5.50;4.30;;;;;;;10.46;100.00;99631.05;86867;277;136218;-81
2024/04/24 06:58:37;;;;;;;4.30;3.90;;;;;;;10.43;100.00;99629.97;86886;276;22573;-71
2024/04/24 07:00:38;;;;;;;4.50;3.80;;;;;;;10.41;100.00;99622.15;86830;276;137794;-84
2024/04/24 07:02:38;;;;;;;4.80;4.50;;;;;;;10.35;100.00;99612.97;87163;276;25257;-82
2024/04/24 07:04:40;;;;;;;4.50;4.10;;;;;;;10.29;100.00;99622.00;86865;277;138152;-84
2024/04/24 07:06:41;;;;;;;4.80;4.40;;;;;;;10.24;100.00;99601.86;86895;284;22630;-83
2024/04/24 07:08:41;;;;;;;7.60;4.70;;;;;;;10.23;100.00;99610.42;87333;280;136513;-80
2024/04/24 07:10:42;;;;;;;5.80;4.90;;;;;;;10.20;100.00;99608.25;87054;284;24178;-79
2024/04/24 07:12:43;;;;;;;4.30;4.00;;;;;;;10.20;100.00;99608.61;87015;283;136769;-84
2024/04/24 07:14:44;;;;;;;4.00;3.70;;;;;;;10.20;100.00;99598.32;87766;270;22527;-84
2024/04/24 07:16:44;;;;;;;8.00;4.80;;;;;;;10.21;100.00;99604.80;87585;271;137481;-82
2024/04/24 07:18:45;;;;;;;5.40;4.70;;;;;;;10.22;100.00;99595.05;87582;272;22563;-84
2024/04/24 07:20:46;;;;;;;5.50;4.70;;;;;;;10.23;100.00;99603.67;87244;268;136238;-84
2024/04/24 07:22:47;;;;;;;7.90;4.90;;;;;;;10.23;100.00;99593.84;87283;271;22512;-84
2024/04/24 07:24:48;;;;;;;4.80;4.50;;;;;;;10.24;100.00;99595.88;87012;274;136854;-75
2024/04/24 07:26:48;;;;;;;5.10;4.60;;;;;;;10.25;100.00;99585.84;87549;275;25144;-84
2024/04/24 07:28:49;;;;;;;6.70;6.10;;;;;;;10.25;100.00;99588.50;87076;279;136611;-84
2024/04/24 07:30:50;;;;;;;6.20;5.60;;;;;;;10.26;100.00;99585.05;87627;275;22563;-81
2024/04/24 07:32:51;;;;;;;5.70;5.20;;;;;;;10.27;100.00;99583.00;87364;271;138086;-79
2024/04/24 07:34:52;;;;;;;6.00;5.40;;;;;;;10.29;100.00;99568.95;87559;268;22530;-84
2024/04/24 07:36:53;;;;;;;5.10;4.70;;;;;;;10.30;100.00;99568.48;87470;263;137349;-73
2024/04/24 07:38:54;;;;;;;7.90;5.40;;;;;;;10.29;100.00;99564.82;87878;277;22592;-85
2024/04/24 07:40:54;;;;;;;5.50;5.10;;;;;;;10.31;100.00;99564.56;87873;272;136962;-82
2024/04/24 07:42:55;;;;;;;5.80;4.90;;;;;;;10.34;100.00;99569.15;87869;276;22990;-81
2024/04/24 07:44:56;;;;;;;5.00;4.60;;;;;;;10.39;100.00;99566.45;87648;269;136482;-82
2024/04/24 07:46:57;;;;;;;6.70;5.50;;;;;;;10.40;100.00;99553.55;87785;271;22657;-84
2024/04/24 07:48:58;;;;;;;5.80;5.30;;;;;;;10.42;100.00;99555.05;87411;271;137582;-84
2024/04/24 07:50:59;;;;;;;7.10;6.50;;;;;;;10.43;100.00;99545.25;87487;272;25044;-82
2024/04/24 07:53:01;;;;;;;11.30;6.50;;;;;;;10.45;100.00;99533.77;88235;268;137378;-81
2024/04/24 07:55:02;;;;;;;6.40;5.90;;;;;;;10.47;100.00;99532.37;87872;265;25178;-80
2024/04/24 07:57:03;;;;;;;6.20;5.60;;;;;;;10.50;100.00;99542.02;87969;268;136326;-85
2024/04/24 07:59:04;;;;;;;6.00;5.50;;;;;;;10.52;100.00;99545.33;89381;277;22553;-79
2024/04/24 08:01:07;;;;;;;9.60;6.80;;;;;;;10.53;100.00;99539.42;88630;270;136832;-80
2024/04/24 08:03:08;;;;;;;6.80;6.20;;;;;;;10.55;100.00;99538.14;88508;272;22575;-80
2024/04/24 08:05:09;;;;;;;8.30;7.40;;;;;;;10.58;100.00;99545.03;88594;269;136663;-82
2024/04/24 08:07:11;;;;;;;8.50;7.30;;;;;;;10.61;100.00;99533.09;88420;267;22527;-80
2024/04/24 08:09:11;;;;;;;9.40;6.90;;;;;;;10.62;100.00;99521.31;88528;267;136620;-78
2024/04/24 08:11:12;;;;;;;7.70;7.00;;;;;;;10.65;100.00;99513.23;88743;274;22558;-86
2024/04/24 08:13:13;;;;;;;7.40;6.00;;;;;;;10.65;100.00;99517.38;88644;268;136808;-83
2024/04/24 08:15:14;;;;;;;7.40;6.40;;;;;;;10.66;100.00;99507.94;88645;270;22645;-82
2024/04/24 08:17:14;;;;;;;8.10;7.50;;;;;;;10.68;100.00;99504.24;87745;266;136321;-86
2024/04/24 08:19:15;;;;;;;7.40;6.60;;;;;;;10.68;100.00;99510.59;87807;271;24205;-81
2024/04/24 08:21:16;;;;;;;8.10;7.30;;;;;;;10.68;100.00;99486.81;87481;272;136551;-85
2024/04/24 08:23:17;;;;;;;7.90;7.20;;;;;;;10.66;100.00;99470.84;87638;268;24078;-84
2024/04/24 08:25:18;;;;;;;7.70;6.70;;;;;;;10.67;100.00;99473.58;87704;272;136078;-87
2024/04/24 08:27:19;;;;;;;7.50;6.30;;;;;;;10.67;100.00;99467.92;88018;268;22567;-84
2024/04/24 08:29:19;;;;;;;7.10;6.60;;;;;;;10.67;100.00;99460.38;87762;275;137417;-88
2024/04/24 08:31:21;;;;;;;7.50;6.80;;;;;;;10.69;100.00;99443.23;87958;266;24252;-85
2024/04/24 08:33:22;;;;;;;6.90;6.40;;;;;;;10.70;100.00;99445.77;87838;270;136213;-84
2024/04/24 08:35:22;;;;;;;7.10;6.50;;;;;;;10.71;100.00;99439.61;87814;271;22757;-83
2024/04/24 08:37:23;;;;;;;7.70;7.00;;;;;;;10.72;100.00;99443.39;87529;272;136560;-84
2024/04/24 08:39:24;;;;;;;8.00;7.20;;;;;;;10.75;100.00;99450.75;87674;272;25177;-81
2024/04/24 08:41:25;;;;;;;8.70;7.80;;;;;;;10.75;100.00;99454.08;87418;272;137689;-85
2024/04/24 08:43:26;;;;;;;8.00;7.30;;;;;;;10.76;100.00;99449.85;87401;281;22645;-85
2024/04/24 08:45:28;;;;;;;7.70;7.10;;;;;;;10.76;100.00;99446.70;87740;270;136427;-86
2024/04/24 08:47:28;;;;;;;7.80;7.20;;;;;;;10.76;100.00;99430.41;87775;271;22575;-86
2024/04/24 08:49:34;;;;;;;7.40;6.90;;;;;;;10.78;100.00;99423.27;87621;268;136424;-81
2024/04/24 08:51:38;;;;;;;8.00;7.10;;;;;;;10.79;100.00;99429.86;87642;267;24149;-85
2024/04/24 08:54:01;;;;;;;7.50;6.90;;;;;;;10.80;100.00;99424.56;87591;268;137614;-81
2024/04/24 08:56:12;;;;;;;7.40;6.70;;;;;;;10.80;100.00;99438.55;87391;280;22603;-84
2024/04/24 08:58:20;;;;;;;8.50;7.70;;;;;;;10.80;100.00;99430.59;87738;267;22569;-83
2024/04/24 09:00:23;;;;;;;7.50;6.80;;;;;;;10.78;100.00;99436.42;87636;271;136440;-85
2024/04/24 09:02:26;;;;;;;8.10;7.40;;;;;;;10.76;100.00;99427.21;87566;271;22844;-85
2024/04/24 09:04:28;;;;;;;8.90;8.10;;;;;;;10.74;100.00;99437.96;87546;271;137295;-81
2024/04/24 09:06:30;;;;;;;8.80;8.00;;;;;;;10.72;100.00;99419.64;87920;268;25214;-85
2024/04/24 09:08:33;;;;;;;9.10;8.10;;;;;;;10.69;100.00;99412.39;88583;276;137558;-78
2024/04/24 09:10:34;;;;;;;9.00;7.90;;;;;;;10.67;100.00;99413.67;87994;268;22556;-85
2024/04/24 09:12:35;;;;;;;16.60;8.70;;;;;;;10.65;100.00;99397.98;87109;272;136889;-77
2024/04/24 09:14:36;;;;;;;10.20;8.30;;;;;;;10.62;100.00;99396.23;87495;268;22574;-76
2024/04/24 09:16:41;;;;;;;8.70;8.00;;;;;;;10.60;100.00;99400.34;87200;264;137134;-74
2024/04/24 09:18:59;;;;;;;8.50;7.70;;;;;;;10.57;100.00;99400.19;87333;273;25169;-78
2024/04/24 09:21:01;;;;;;;8.00;7.30;;;;;;;10.54;100.00;99397.09;87255;272;137083;-79
2024/04/24 09:23:03;;;;;;;7.80;7.20;;;;;;;10.51;100.00;99377.98;87511;271;24027;-76
2024/04/24 09:25:03;;;;;;;8.80;7.90;;;;;;;10.50;100.00;99378.54;87556;268;136902;-77
2024/04/24 09:27:04;;;;;;;8.90;8.20;;;;;;;10.49;100.00;99371.23;87305;272;22568;-78
2024/04/24 09:29:05;;;;;;;8.50;7.70;;;;;;;10.47;100.00;99366.36;87222;279;138148;-78
2024/04/24 09:31:05;;;;;;;10.20;8.90;;;;;;;10.46;100.00;99372.56;87211;276;22508;-78
2024/04/24 09:33:06;;;;;;;8.20;7.70;;;;;;;10.46;100.00;99357.53;87033;271;136938;-76